sensor_id;sensor_type;location;lat;lon;timestamp;P1;durP1;ratioP1;P2;durP2;ratioP2
15082;SDS011;7640;53.116;6.878;2022-11-15T00:01:23;34.60;;;23.23;;
15082;SDS011;7640;53.116;6.878;2022-11-15T00:03:51;35.93;;;23.53;;
15082;SDS011;7640;53.116;6.878;2022-11-15T00:06:19;38.40;;;23.73;;
15082;SDS011;7640;53.116;6.878;2022-11-15T00:08:48;37.03;;;23.53;;
15082;SDS011;7640;53.116;6.878;2022-11-15T00:11:16;34.60;;;23.63;;
15082;SDS011;7640;53.116;6.878;2022-11-15T00:13:46;34.30;;;23.30;;
15082;SDS011;7640;53.116;6.878;2022-11-15T00:16:14;36.17;;;24.20;;
15082;SDS011;7640;53.116;6.878;2022-11-15T00:18:43;37.57;;;23.73;;
15082;SDS011;7640;53.116;6.878;2022-11-15T00:21:16;38.13;;;24.30;;
15082;SDS011;7640;53.116;6.878;2022-11-15T00:23:45;36.17;;;23.43;;
15082;SDS011;7640;53.116;6.878;2022-11-15T00:26:14;34.90;;;23.77;;
15082;SDS011;7640;53.116;6.878;2022-11-15T00:28:42;37.83;;;23.97;;
15082;SDS011;7640;53.116;6.878;2022-11-15T00:31:13;36.83;;;24.67;;
15082;SDS011;7640;53.116;6.878;2022-11-15T00:33:43;36.97;;;24.10;;
15082;SDS011;7640;53.116;6.878;2022-11-15T00:36:12;36.00;;;24.00;;
15082;SDS011;7640;53.116;6.878;2022-11-15T00:38:40;35.70;;;23.27;;
15082;SDS011;7640;53.116;6.878;2022-11-15T00:41:09;34.07;;;23.77;;
15082;SDS011;7640;53.116;6.878;2022-11-15T00:43:37;34.10;;;22.70;;
15082;SDS011;7640;53.116;6.878;2022-11-15T00:46:06;34.47;;;23.60;;
15082;SDS011;7640;53.116;6.878;2022-11-15T00:48:37;34.40;;;24.47;;
15082;SDS011;7640;53.116;6.878;2022-11-15T00:51:05;37.80;;;23.17;;
15082;SDS011;7640;53.116;6.878;2022-11-15T00:53:33;35.00;;;23.27;;
15082;SDS011;7640;53.116;6.878;2022-11-15T00:56:02;32.30;;;22.40;;
15082;SDS011;7640;53.116;6.878;2022-11-15T00:58:31;34.63;;;22.77;;
15082;SDS011;7640;53.116;6.878;2022-11-15T01:01:07;32.27;;;21.97;;
15082;SDS011;7640;53.116;6.878;2022-11-15T01:03:40;33.17;;;22.10;;
15082;SDS011;7640;53.116;6.878;2022-11-15T01:06:09;30.27;;;20.97;;
15082;SDS011;7640;53.116;6.878;2022-11-15T01:08:38;34.20;;;22.43;;
15082;SDS011;7640;53.116;6.878;2022-11-15T01:11:08;35.03;;;22.50;;
15082;SDS011;7640;53.116;6.878;2022-11-15T01:13:39;35.83;;;23.70;;
15082;SDS011;7640;53.116;6.878;2022-11-15T01:16:08;39.37;;;23.87;;
15082;SDS011;7640;53.116;6.878;2022-11-15T01:18:40;37.40;;;23.67;;
15082;SDS011;7640;53.116;6.878;2022-11-15T01:21:09;37.10;;;23.03;;
15082;SDS011;7640;53.116;6.878;2022-11-15T01:23:40;36.17;;;23.73;;
15082;SDS011;7640;53.116;6.878;2022-11-15T01:26:09;36.80;;;22.83;;
15082;SDS011;7640;53.116;6.878;2022-11-15T01:28:41;38.87;;;23.67;;
15082;SDS011;7640;53.116;6.878;2022-11-15T01:31:12;35.10;;;22.50;;
15082;SDS011;7640;53.116;6.878;2022-11-15T01:33:45;37.87;;;23.50;;
15082;SDS011;7640;53.116;6.878;2022-11-15T01:36:15;37.93;;;24.20;;
15082;SDS011;7640;53.116;6.878;2022-11-15T01:38:52;34.80;;;19.13;;
15082;SDS011;7640;53.116;6.878;2022-11-15T01:41:22;38.00;;;22.50;;
15082;SDS011;7640;53.116;6.878;2022-11-15T01:43:53;36.97;;;23.43;;
15082;SDS011;7640;53.116;6.878;2022-11-15T01:46:28;39.10;;;22.07;;
15082;SDS011;7640;53.116;6.878;2022-11-15T01:49:02;38.77;;;21.97;;
15082;SDS011;7640;53.116;6.878;2022-11-15T01:51:38;35.13;;;21.50;;
15082;SDS011;7640;53.116;6.878;2022-11-15T01:54:08;36.43;;;22.33;;
15082;SDS011;7640;53.116;6.878;2022-11-15T01:56:41;36.57;;;20.90;;
15082;SDS011;7640;53.116;6.878;2022-11-15T01:59:15;34.87;;;21.20;;
15082;SDS011;7640;53.116;6.878;2022-11-15T02:01:44;35.53;;;22.07;;
15082;SDS011;7640;53.116;6.878;2022-11-15T02:04:15;35.33;;;22.57;;
15082;SDS011;7640;53.116;6.878;2022-11-15T02:06:46;35.53;;;21.40;;
15082;SDS011;7640;53.116;6.878;2022-11-15T02:09:16;34.03;;;21.60;;
15082;SDS011;7640;53.116;6.878;2022-11-15T02:11:45;36.23;;;22.00;;
15082;SDS011;7640;53.116;6.878;2022-11-15T02:14:16;36.53;;;21.70;;
15082;SDS011;7640;53.116;6.878;2022-11-15T02:16:48;34.57;;;21.40;;
15082;SDS011;7640;53.116;6.878;2022-11-15T02:19:36;35.53;;;21.13;;
15082;SDS011;7640;53.116;6.878;2022-11-15T02:22:37;34.90;;;21.80;;
15082;SDS011;7640;53.116;6.878;2022-11-15T02:25:26;36.97;;;21.63;;
15082;SDS011;7640;53.116;6.878;2022-11-15T02:28:23;32.03;;;19.53;;
15082;SDS011;7640;53.116;6.878;2022-11-15T02:31:15;35.20;;;21.10;;
15082;SDS011;7640;53.116;6.878;2022-11-15T02:33:53;35.93;;;20.53;;
15082;SDS011;7640;53.116;6.878;2022-11-15T02:36:33;37.50;;;22.87;;
15082;SDS011;7640;53.116;6.878;2022-11-15T02:39:10;35.47;;;22.20;;
15082;SDS011;7640;53.116;6.878;2022-11-15T02:41:47;35.30;;;21.13;;
15082;SDS011;7640;53.116;6.878;2022-11-15T02:44:21;34.40;;;21.10;;
15082;SDS011;7640;53.116;6.878;2022-11-15T02:46:57;40.20;;;22.77;;
15082;SDS011;7640;53.116;6.878;2022-11-15T02:49:42;38.27;;;22.07;;
15082;SDS011;7640;53.116;6.878;2022-11-15T02:52:15;40.27;;;21.93;;
15082;SDS011;7640;53.116;6.878;2022-11-15T02:54:52;39.67;;;21.63;;
15082;SDS011;7640;53.116;6.878;2022-11-15T02:57:23;37.37;;;21.87;;
15082;SDS011;7640;53.116;6.878;2022-11-15T03:00:06;36.83;;;21.80;;
15082;SDS011;7640;53.116;6.878;2022-11-15T03:05:37;34.50;;;21.77;;
15082;SDS011;7640;53.116;6.878;2022-11-15T03:08:13;32.97;;;21.40;;
15082;SDS011;7640;53.116;6.878;2022-11-15T03:10:52;35.40;;;20.33;;
15082;SDS011;7640;53.116;6.878;2022-11-15T03:13:31;35.10;;;21.37;;
15082;SDS011;7640;53.116;6.878;2022-11-15T03:16:06;39.87;;;21.83;;
15082;SDS011;7640;53.116;6.878;2022-11-15T03:18:43;38.20;;;21.57;;
15082;SDS011;7640;53.116;6.878;2022-11-15T03:21:17;37.73;;;21.20;;
15082;SDS011;7640;53.116;6.878;2022-11-15T03:23:47;39.17;;;22.00;;
15082;SDS011;7640;53.116;6.878;2022-11-15T03:26:18;40.77;;;22.70;;
15082;SDS011;7640;53.116;6.878;2022-11-15T03:28:49;41.80;;;22.83;;
15082;SDS011;7640;53.116;6.878;2022-11-15T03:31:20;44.73;;;23.10;;
15082;SDS011;7640;53.116;6.878;2022-11-15T03:34:19;40.87;;;22.73;;
15082;SDS011;7640;53.116;6.878;2022-11-15T03:36:53;45.87;;;23.60;;
15082;SDS011;7640;53.116;6.878;2022-11-15T03:39:22;48.97;;;24.00;;
15082;SDS011;7640;53.116;6.878;2022-11-15T03:41:54;42.57;;;24.63;;
15082;SDS011;7640;53.116;6.878;2022-11-15T03:44:35;52.30;;;26.17;;
15082;SDS011;7640;53.116;6.878;2022-11-15T03:47:09;48.83;;;24.93;;
15082;SDS011;7640;53.116;6.878;2022-11-15T03:49:46;46.03;;;24.67;;
15082;SDS011;7640;53.116;6.878;2022-11-15T03:52:20;41.73;;;22.80;;
15082;SDS011;7640;53.116;6.878;2022-11-15T03:54:50;45.13;;;23.83;;
15082;SDS011;7640;53.116;6.878;2022-11-15T03:57:21;45.30;;;24.37;;
15082;SDS011;7640;53.116;6.878;2022-11-15T03:59:50;42.67;;;24.73;;
15082;SDS011;7640;53.116;6.878;2022-11-15T04:02:18;41.10;;;23.83;;
15082;SDS011;7640;53.116;6.878;2022-11-15T04:04:48;44.93;;;24.27;;
15082;SDS011;7640;53.116;6.878;2022-11-15T04:07:17;44.50;;;24.30;;
15082;SDS011;7640;53.116;6.878;2022-11-15T04:09:45;44.47;;;24.13;;
15082;SDS011;7640;53.116;6.878;2022-11-15T04:12:33;42.77;;;23.93;;
15082;SDS011;7640;53.116;6.878;2022-11-15T04:15:04;43.87;;;24.97;;
15082;SDS011;7640;53.116;6.878;2022-11-15T04:17:36;44.97;;;24.03;;
15082;SDS011;7640;53.116;6.878;2022-11-15T04:20:09;45.57;;;24.17;;
15082;SDS011;7640;53.116;6.878;2022-11-15T04:22:59;43.17;;;24.27;;
15082;SDS011;7640;53.116;6.878;2022-11-15T04:25:46;44.60;;;25.40;;
15082;SDS011;7640;53.116;6.878;2022-11-15T04:28:18;43.83;;;25.60;;
15082;SDS011;7640;53.116;6.878;2022-11-15T04:30:47;48.03;;;25.30;;
15082;SDS011;7640;53.116;6.878;2022-11-15T04:33:15;47.57;;;25.73;;
15082;SDS011;7640;53.116;6.878;2022-11-15T04:35:45;55.50;;;25.90;;
15082;SDS011;7640;53.116;6.878;2022-11-15T04:38:33;49.07;;;25.63;;
15082;SDS011;7640;53.116;6.878;2022-11-15T04:41:01;57.13;;;28.17;;
15082;SDS011;7640;53.116;6.878;2022-11-15T04:43:30;50.83;;;25.47;;
15082;SDS011;7640;53.116;6.878;2022-11-15T04:45:59;50.23;;;26.97;;
15082;SDS011;7640;53.116;6.878;2022-11-15T04:48:27;54.17;;;27.30;;
15082;SDS011;7640;53.116;6.878;2022-11-15T04:50:57;56.90;;;27.20;;
15082;SDS011;7640;53.116;6.878;2022-11-15T04:53:25;50.67;;;26.60;;
15082;SDS011;7640;53.116;6.878;2022-11-15T04:55:53;57.97;;;28.73;;
15082;SDS011;7640;53.116;6.878;2022-11-15T04:58:23;54.43;;;28.43;;
15082;SDS011;7640;53.116;6.878;2022-11-15T05:00:52;53.93;;;28.10;;
15082;SDS011;7640;53.116;6.878;2022-11-15T05:03:20;54.43;;;26.13;;
15082;SDS011;7640;53.116;6.878;2022-11-15T05:06:07;63.07;;;29.77;;
15082;SDS011;7640;53.116;6.878;2022-11-15T05:08:36;66.13;;;29.77;;
15082;SDS011;7640;53.116;6.878;2022-11-15T05:11:04;57.60;;;29.97;;
15082;SDS011;7640;53.116;6.878;2022-11-15T05:13:33;57.80;;;30.03;;
15082;SDS011;7640;53.116;6.878;2022-11-15T05:16:01;64.47;;;31.10;;
15082;SDS011;7640;53.116;6.878;2022-11-15T05:18:29;70.47;;;31.70;;
15082;SDS011;7640;53.116;6.878;2022-11-15T05:21:02;68.50;;;32.50;;
15082;SDS011;7640;53.116;6.878;2022-11-15T05:23:33;74.90;;;32.83;;
15082;SDS011;7640;53.116;6.878;2022-11-15T05:26:01;90.50;;;36.20;;
15082;SDS011;7640;53.116;6.878;2022-11-15T05:28:34;82.20;;;34.63;;
15082;SDS011;7640;53.116;6.878;2022-11-15T05:31:05;76.83;;;34.53;;
15082;SDS011;7640;53.116;6.878;2022-11-15T05:33:35;89.63;;;35.33;;
15082;SDS011;7640;53.116;6.878;2022-11-15T05:36:06;84.97;;;36.43;;
15082;SDS011;7640;53.116;6.878;2022-11-15T05:38:41;88.73;;;38.07;;
15082;SDS011;7640;53.116;6.878;2022-11-15T05:41:09;90.60;;;37.63;;
15082;SDS011;7640;53.116;6.878;2022-11-15T05:43:38;87.17;;;37.43;;
15082;SDS011;7640;53.116;6.878;2022-11-15T05:46:08;89.30;;;37.33;;
15082;SDS011;7640;53.116;6.878;2022-11-15T05:48:37;87.43;;;37.53;;
15082;SDS011;7640;53.116;6.878;2022-11-15T05:51:09;87.43;;;37.53;;
15082;SDS011;7640;53.116;6.878;2022-11-15T05:53:37;88.63;;;37.17;;
15082;SDS011;7640;53.116;6.878;2022-11-15T05:56:07;99.33;;;40.03;;
15082;SDS011;7640;53.116;6.878;2022-11-15T05:58:37;84.23;;;37.30;;
15082;SDS011;7640;53.116;6.878;2022-11-15T06:01:06;84.63;;;37.87;;
15082;SDS011;7640;53.116;6.878;2022-11-15T06:03:36;88.10;;;40.23;;
15082;SDS011;7640;53.116;6.878;2022-11-15T06:06:04;88.97;;;39.40;;
15082;SDS011;7640;53.116;6.878;2022-11-15T06:08:40;81.53;;;38.63;;
15082;SDS011;7640;53.116;6.878;2022-11-15T06:11:09;89.23;;;38.87;;
15082;SDS011;7640;53.116;6.878;2022-11-15T06:13:38;81.93;;;37.97;;
15082;SDS011;7640;53.116;6.878;2022-11-15T06:16:06;88.83;;;38.17;;
15082;SDS011;7640;53.116;6.878;2022-11-15T06:18:35;76.73;;;37.77;;
15082;SDS011;7640;53.116;6.878;2022-11-15T06:21:04;81.90;;;38.50;;
15082;SDS011;7640;53.116;6.878;2022-11-15T06:23:33;73.60;;;37.40;;
15082;SDS011;7640;53.116;6.878;2022-11-15T06:26:02;73.17;;;36.67;;
15082;SDS011;7640;53.116;6.878;2022-11-15T06:28:32;76.43;;;36.67;;
15082;SDS011;7640;53.116;6.878;2022-11-15T06:31:02;74.50;;;34.97;;
15082;SDS011;7640;53.116;6.878;2022-11-15T06:33:31;76.73;;;35.83;;
15082;SDS011;7640;53.116;6.878;2022-11-15T06:36:00;69.23;;;35.77;;
15082;SDS011;7640;53.116;6.878;2022-11-15T06:38:29;65.93;;;34.80;;
15082;SDS011;7640;53.116;6.878;2022-11-15T06:41:00;71.00;;;34.80;;
15082;SDS011;7640;53.116;6.878;2022-11-15T06:43:30;62.43;;;34.40;;
15082;SDS011;7640;53.116;6.878;2022-11-15T06:46:01;69.43;;;35.27;;
15082;SDS011;7640;53.116;6.878;2022-11-15T06:48:30;57.97;;;33.63;;
15082;SDS011;7640;53.116;6.878;2022-11-15T06:51:00;60.73;;;34.13;;
15082;SDS011;7640;53.116;6.878;2022-11-15T06:53:30;68.33;;;33.07;;
15082;SDS011;7640;53.116;6.878;2022-11-15T06:56:00;63.87;;;33.10;;
15082;SDS011;7640;53.116;6.878;2022-11-15T06:58:29;59.93;;;31.50;;
15082;SDS011;7640;53.116;6.878;2022-11-15T07:00:58;58.10;;;33.90;;
15082;SDS011;7640;53.116;6.878;2022-11-15T07:03:29;58.17;;;30.80;;
15082;SDS011;7640;53.116;6.878;2022-11-15T07:05:58;53.90;;;30.00;;
15082;SDS011;7640;53.116;6.878;2022-11-15T07:08:33;55.17;;;30.97;;
15082;SDS011;7640;53.116;6.878;2022-11-15T07:11:02;60.53;;;32.60;;
15082;SDS011;7640;53.116;6.878;2022-11-15T07:13:34;57.67;;;31.60;;
15082;SDS011;7640;53.116;6.878;2022-11-15T07:16:05;64.43;;;32.27;;
15082;SDS011;7640;53.116;6.878;2022-11-15T07:18:36;62.00;;;31.07;;
15082;SDS011;7640;53.116;6.878;2022-11-15T07:21:06;54.77;;;30.00;;
15082;SDS011;7640;53.116;6.878;2022-11-15T07:23:37;54.10;;;29.30;;
15082;SDS011;7640;53.116;6.878;2022-11-15T07:26:06;51.33;;;29.13;;
15082;SDS011;7640;53.116;6.878;2022-11-15T07:28:35;50.93;;;29.50;;
15082;SDS011;7640;53.116;6.878;2022-11-15T07:31:06;53.60;;;29.50;;
15082;SDS011;7640;53.116;6.878;2022-11-15T07:33:35;50.10;;;28.30;;
15082;SDS011;7640;53.116;6.878;2022-11-15T07:36:13;45.07;;;28.67;;
15082;SDS011;7640;53.116;6.878;2022-11-15T07:38:41;49.07;;;28.63;;
15082;SDS011;7640;53.116;6.878;2022-11-15T07:41:09;50.27;;;28.90;;
15082;SDS011;7640;53.116;6.878;2022-11-15T07:43:38;46.27;;;27.93;;
15082;SDS011;7640;53.116;6.878;2022-11-15T07:46:08;46.13;;;28.13;;
15082;SDS011;7640;53.116;6.878;2022-11-15T07:48:38;43.97;;;27.87;;
15082;SDS011;7640;53.116;6.878;2022-11-15T07:51:11;45.50;;;27.00;;
15082;SDS011;7640;53.116;6.878;2022-11-15T07:53:40;45.90;;;26.67;;
15082;SDS011;7640;53.116;6.878;2022-11-15T07:56:09;45.57;;;28.23;;
15082;SDS011;7640;53.116;6.878;2022-11-15T07:58:38;45.13;;;27.13;;
15082;SDS011;7640;53.116;6.878;2022-11-15T08:01:08;44.97;;;27.77;;
15082;SDS011;7640;53.116;6.878;2022-11-15T08:03:38;44.37;;;26.97;;
15082;SDS011;7640;53.116;6.878;2022-11-15T08:06:06;42.33;;;26.73;;
15082;SDS011;7640;53.116;6.878;2022-11-15T08:08:35;44.43;;;27.60;;
15082;SDS011;7640;53.116;6.878;2022-11-15T08:11:03;39.83;;;26.57;;
15082;SDS011;7640;53.116;6.878;2022-11-15T08:13:32;43.17;;;27.60;;
15082;SDS011;7640;53.116;6.878;2022-11-15T08:16:01;39.77;;;25.53;;
15082;SDS011;7640;53.116;6.878;2022-11-15T08:18:33;44.93;;;26.57;;
15082;SDS011;7640;53.116;6.878;2022-11-15T08:21:01;41.13;;;25.23;;
15082;SDS011;7640;53.116;6.878;2022-11-15T08:23:31;42.23;;;26.43;;
15082;SDS011;7640;53.116;6.878;2022-11-15T08:26:00;38.83;;;25.40;;
15082;SDS011;7640;53.116;6.878;2022-11-15T08:28:29;42.47;;;26.40;;
15082;SDS011;7640;53.116;6.878;2022-11-15T08:30:58;40.03;;;26.40;;
15082;SDS011;7640;53.116;6.878;2022-11-15T08:33:26;44.53;;;25.57;;
15082;SDS011;7640;53.116;6.878;2022-11-15T08:35:57;38.40;;;25.40;;
15082;SDS011;7640;53.116;6.878;2022-11-15T08:38:26;41.07;;;26.20;;
15082;SDS011;7640;53.116;6.878;2022-11-15T08:40:59;40.30;;;26.43;;
15082;SDS011;7640;53.116;6.878;2022-11-15T08:43:30;35.20;;;24.70;;
15082;SDS011;7640;53.116;6.878;2022-11-15T08:45:58;41.10;;;25.20;;
15082;SDS011;7640;53.116;6.878;2022-11-15T08:48:27;35.23;;;25.00;;
15082;SDS011;7640;53.116;6.878;2022-11-15T08:50:57;34.93;;;24.57;;
15082;SDS011;7640;53.116;6.878;2022-11-15T08:53:27;32.43;;;23.23;;
15082;SDS011;7640;53.116;6.878;2022-11-15T08:55:55;38.13;;;24.20;;
15082;SDS011;7640;53.116;6.878;2022-11-15T08:58:24;31.10;;;23.37;;
15082;SDS011;7640;53.116;6.878;2022-11-15T09:00:52;34.37;;;23.97;;
15082;SDS011;7640;53.116;6.878;2022-11-15T09:03:21;32.73;;;22.83;;
15082;SDS011;7640;53.116;6.878;2022-11-15T09:05:53;33.10;;;22.93;;
15082;SDS011;7640;53.116;6.878;2022-11-15T09:08:24;34.67;;;23.90;;
15082;SDS011;7640;53.116;6.878;2022-11-15T09:11:13;32.23;;;22.73;;
15082;SDS011;7640;53.116;6.878;2022-11-15T09:13:47;35.33;;;22.27;;
15082;SDS011;7640;53.116;6.878;2022-11-15T09:16:15;30.73;;;22.60;;
15082;SDS011;7640;53.116;6.878;2022-11-15T09:18:43;32.83;;;22.50;;
15082;SDS011;7640;53.116;6.878;2022-11-15T09:21:13;30.07;;;21.63;;
15082;SDS011;7640;53.116;6.878;2022-11-15T09:23:41;30.43;;;21.90;;
15082;SDS011;7640;53.116;6.878;2022-11-15T09:26:09;33.60;;;23.83;;
15082;SDS011;7640;53.116;6.878;2022-11-15T09:28:38;29.90;;;22.70;;
15082;SDS011;7640;53.116;6.878;2022-11-15T09:31:08;33.27;;;23.70;;
15082;SDS011;7640;53.116;6.878;2022-11-15T09:33:37;32.53;;;22.67;;
15082;SDS011;7640;53.116;6.878;2022-11-15T09:36:05;31.73;;;22.67;;
15082;SDS011;7640;53.116;6.878;2022-11-15T09:38:37;33.23;;;22.53;;
15082;SDS011;7640;53.116;6.878;2022-11-15T09:44:43;31.27;;;22.73;;
15082;SDS011;7640;53.116;6.878;2022-11-15T09:47:54;30.13;;;22.63;;
15082;SDS011;7640;53.116;6.878;2022-11-15T09:50:52;30.03;;;22.33;;
15082;SDS011;7640;53.116;6.878;2022-11-15T09:53:27;38.07;;;23.93;;
15082;SDS011;7640;53.116;6.878;2022-11-15T09:56:24;31.77;;;23.37;;
15082;SDS011;7640;53.116;6.878;2022-11-15T09:58:59;32.20;;;23.27;;
15082;SDS011;7640;53.116;6.878;2022-11-15T10:01:43;29.67;;;22.63;;
15082;SDS011;7640;53.116;6.878;2022-11-15T10:04:21;34.60;;;25.10;;
15082;SDS011;7640;53.116;6.878;2022-11-15T10:06:52;34.70;;;25.17;;
15082;SDS011;7640;53.116;6.878;2022-11-15T10:09:29;32.07;;;24.40;;
15082;SDS011;7640;53.116;6.878;2022-11-15T10:12:07;38.20;;;25.57;;
15082;SDS011;7640;53.116;6.878;2022-11-15T10:14:36;34.37;;;24.97;;
15082;SDS011;7640;53.116;6.878;2022-11-15T10:17:17;35.87;;;24.93;;
15082;SDS011;7640;53.116;6.878;2022-11-15T10:20:05;35.10;;;23.73;;
15082;SDS011;7640;53.116;6.878;2022-11-15T10:22:44;34.23;;;24.43;;
15082;SDS011;7640;53.116;6.878;2022-11-15T10:25:19;36.53;;;24.03;;
15082;SDS011;7640;53.116;6.878;2022-11-15T10:27:53;36.63;;;25.27;;
15082;SDS011;7640;53.116;6.878;2022-11-15T10:30:29;32.00;;;24.10;;
15082;SDS011;7640;53.116;6.878;2022-11-15T10:33:09;36.73;;;25.00;;
15082;SDS011;7640;53.116;6.878;2022-11-15T10:36:21;39.40;;;26.37;;
15082;SDS011;7640;53.116;6.878;2022-11-15T10:38:57;35.37;;;25.87;;
15082;SDS011;7640;53.116;6.878;2022-11-15T10:41:30;33.30;;;24.20;;
15082;SDS011;7640;53.116;6.878;2022-11-15T10:44:19;35.60;;;25.70;;
15082;SDS011;7640;53.116;6.878;2022-11-15T10:47:06;32.73;;;24.90;;
15082;SDS011;7640;53.116;6.878;2022-11-15T10:50:05;35.17;;;25.40;;
15082;SDS011;7640;53.116;6.878;2022-11-15T10:52:52;36.93;;;25.03;;
15082;SDS011;7640;53.116;6.878;2022-11-15T10:55:23;33.30;;;24.63;;
15082;SDS011;7640;53.116;6.878;2022-11-15T10:57:54;31.73;;;24.40;;
15082;SDS011;7640;53.116;6.878;2022-11-15T11:00:36;33.83;;;25.00;;
15082;SDS011;7640;53.116;6.878;2022-11-15T11:03:06;33.17;;;24.83;;
15082;SDS011;7640;53.116;6.878;2022-11-15T11:06:06;34.43;;;24.63;;
15082;SDS011;7640;53.116;6.878;2022-11-15T11:08:37;34.00;;;24.73;;
15082;SDS011;7640;53.116;6.878;2022-11-15T11:11:06;33.07;;;23.23;;
15082;SDS011;7640;53.116;6.878;2022-11-15T11:13:35;29.10;;;22.30;;
15082;SDS011;7640;53.116;6.878;2022-11-15T11:16:21;27.13;;;20.90;;
15082;SDS011;7640;53.116;6.878;2022-11-15T11:19:31;28.03;;;21.33;;
15082;SDS011;7640;53.116;6.878;2022-11-15T11:22:17;25.40;;;19.77;;
15082;SDS011;7640;53.116;6.878;2022-11-15T11:24:56;27.10;;;20.50;;
15082;SDS011;7640;53.116;6.878;2022-11-15T11:27:38;26.23;;;20.20;;
15082;SDS011;7640;53.116;6.878;2022-11-15T11:30:29;24.83;;;20.43;;
15082;SDS011;7640;53.116;6.878;2022-11-15T11:33:12;24.07;;;19.67;;
15082;SDS011;7640;53.116;6.878;2022-11-15T11:35:50;27.20;;;20.40;;
15082;SDS011;7640;53.116;6.878;2022-11-15T11:38:39;25.70;;;20.07;;
15082;SDS011;7640;53.116;6.878;2022-11-15T11:41:26;24.80;;;19.30;;
15082;SDS011;7640;53.116;6.878;2022-11-15T11:44:15;25.27;;;19.43;;
15082;SDS011;7640;53.116;6.878;2022-11-15T11:46:56;23.07;;;18.87;;
15082;SDS011;7640;53.116;6.878;2022-11-15T11:49:31;26.40;;;19.33;;
15082;SDS011;7640;53.116;6.878;2022-11-15T11:52:08;21.70;;;16.10;;
15082;SDS011;7640;53.116;6.878;2022-11-15T11:54:46;19.00;;;16.83;;
15082;SDS011;7640;53.116;6.878;2022-11-15T11:57:29;21.60;;;15.90;;
15082;SDS011;7640;53.116;6.878;2022-11-15T12:00:14;19.83;;;15.83;;
15082;SDS011;7640;53.116;6.878;2022-11-15T12:02:48;17.63;;;15.43;;
15082;SDS011;7640;53.116;6.878;2022-11-15T12:05:34;17.43;;;13.30;;
15082;SDS011;7640;53.116;6.878;2022-11-15T12:08:13;16.83;;;12.77;;
15082;SDS011;7640;53.116;6.878;2022-11-15T12:10:55;16.03;;;12.63;;
15082;SDS011;7640;53.116;6.878;2022-11-15T12:13:31;15.97;;;12.67;;
15082;SDS011;7640;53.116;6.878;2022-11-15T12:16:04;15.27;;;11.20;;
15082;SDS011;7640;53.116;6.878;2022-11-15T12:18:39;13.20;;;10.97;;
15082;SDS011;7640;53.116;6.878;2022-11-15T12:21:15;11.90;;;9.27;;
15082;SDS011;7640;53.116;6.878;2022-11-15T12:23:54;11.83;;;9.10;;
15082;SDS011;7640;53.116;6.878;2022-11-15T12:26:31;12.30;;;8.30;;
15082;SDS011;7640;53.116;6.878;2022-11-15T12:29:04;10.33;;;8.07;;
15082;SDS011;7640;53.116;6.878;2022-11-15T12:31:41;9.63;;;7.23;;
15082;SDS011;7640;53.116;6.878;2022-11-15T12:34:15;8.93;;;7.40;;
15082;SDS011;7640;53.116;6.878;2022-11-15T12:37:03;10.47;;;7.53;;
15082;SDS011;7640;53.116;6.878;2022-11-15T12:40:23;8.67;;;6.57;;
15082;SDS011;7640;53.116;6.878;2022-11-15T12:43:01;9.70;;;6.57;;
15082;SDS011;7640;53.116;6.878;2022-11-15T12:46:12;8.20;;;6.20;;
15082;SDS011;7640;53.116;6.878;2022-11-15T12:48:49;8.90;;;6.20;;
15082;SDS011;7640;53.116;6.878;2022-11-15T12:51:23;9.77;;;7.00;;
15082;SDS011;7640;53.116;6.878;2022-11-15T12:57:51;9.43;;;6.90;;
15082;SDS011;7640;53.116;6.878;2022-11-15T13:03:17;7.43;;;6.60;;
15082;SDS011;7640;53.116;6.878;2022-11-15T13:06:02;10.37;;;6.17;;
15082;SDS011;7640;53.116;6.878;2022-11-15T13:08:42;13.87;;;6.60;;
15082;SDS011;7640;53.116;6.878;2022-11-15T13:17:31;8.07;;;5.90;;
15082;SDS011;7640;53.116;6.878;2022-11-15T13:23:00;5.60;;;5.00;;
15082;SDS011;7640;53.116;6.878;2022-11-15T13:28:43;8.20;;;5.70;;
15082;SDS011;7640;53.116;6.878;2022-11-15T13:31:25;9.00;;;5.63;;
15082;SDS011;7640;53.116;6.878;2022-11-15T13:33:59;7.73;;;5.27;;
15082;SDS011;7640;53.116;6.878;2022-11-15T13:36:43;7.30;;;5.50;;
15082;SDS011;7640;53.116;6.878;2022-11-15T13:39:12;7.03;;;4.47;;
15082;SDS011;7640;53.116;6.878;2022-11-15T13:41:55;6.23;;;4.10;;
15082;SDS011;7640;53.116;6.878;2022-11-15T13:44:27;7.27;;;3.93;;
15082;SDS011;7640;53.116;6.878;2022-11-15T13:47:01;5.77;;;3.53;;
15082;SDS011;7640;53.116;6.878;2022-11-15T13:49:33;5.40;;;3.60;;
15082;SDS011;7640;53.116;6.878;2022-11-15T13:52:02;5.00;;;3.60;;
15082;SDS011;7640;53.116;6.878;2022-11-15T13:54:34;6.70;;;3.90;;
15082;SDS011;7640;53.116;6.878;2022-11-15T13:57:12;6.00;;;4.17;;
15082;SDS011;7640;53.116;6.878;2022-11-15T13:59:47;5.30;;;3.80;;
15082;SDS011;7640;53.116;6.878;2022-11-15T14:02:18;5.17;;;4.03;;
15082;SDS011;7640;53.116;6.878;2022-11-15T14:04:53;6.43;;;4.33;;
15082;SDS011;7640;53.116;6.878;2022-11-15T14:07:24;5.40;;;4.10;;
15082;SDS011;7640;53.116;6.878;2022-11-15T14:09:55;6.70;;;4.63;;
15082;SDS011;7640;53.116;6.878;2022-11-15T14:12:26;7.70;;;4.50;;
15082;SDS011;7640;53.116;6.878;2022-11-15T14:14:58;5.00;;;3.87;;
15082;SDS011;7640;53.116;6.878;2022-11-15T14:17:33;5.23;;;4.03;;
15082;SDS011;7640;53.116;6.878;2022-11-15T14:20:19;6.27;;;3.97;;
15082;SDS011;7640;53.116;6.878;2022-11-15T14:22:55;4.87;;;4.30;;
15082;SDS011;7640;53.116;6.878;2022-11-15T14:25:25;5.60;;;4.50;;
15082;SDS011;7640;53.116;6.878;2022-11-15T14:28:11;6.97;;;4.10;;
15082;SDS011;7640;53.116;6.878;2022-11-15T14:30:57;7.13;;;4.60;;
15082;SDS011;7640;53.116;6.878;2022-11-15T14:33:28;4.73;;;4.23;;
15082;SDS011;7640;53.116;6.878;2022-11-15T14:36:01;5.17;;;4.67;;
15082;SDS011;7640;53.116;6.878;2022-11-15T14:38:32;4.90;;;4.40;;
15082;SDS011;7640;53.116;6.878;2022-11-15T14:41:01;5.00;;;4.47;;
15082;SDS011;7640;53.116;6.878;2022-11-15T14:43:31;6.23;;;4.53;;
15082;SDS011;7640;53.116;6.878;2022-11-15T14:45:59;7.80;;;4.47;;
15082;SDS011;7640;53.116;6.878;2022-11-15T14:48:28;6.07;;;4.53;;
15082;SDS011;7640;53.116;6.878;2022-11-15T14:50:57;5.03;;;4.40;;
15082;SDS011;7640;53.116;6.878;2022-11-15T14:53:25;5.10;;;4.53;;
15082;SDS011;7640;53.116;6.878;2022-11-15T14:55:53;4.70;;;4.20;;
15082;SDS011;7640;53.116;6.878;2022-11-15T14:58:22;6.33;;;4.13;;
15082;SDS011;7640;53.116;6.878;2022-11-15T15:00:51;6.90;;;4.90;;
15082;SDS011;7640;53.116;6.878;2022-11-15T15:03:19;6.90;;;4.43;;
15082;SDS011;7640;53.116;6.878;2022-11-15T15:05:48;6.37;;;4.70;;
15082;SDS011;7640;53.116;6.878;2022-11-15T15:08:16;7.33;;;5.00;;
15082;SDS011;7640;53.116;6.878;2022-11-15T15:10:45;5.23;;;4.73;;
15082;SDS011;7640;53.116;6.878;2022-11-15T15:13:15;6.80;;;5.10;;
15082;SDS011;7640;53.116;6.878;2022-11-15T15:15:46;5.53;;;4.73;;
15082;SDS011;7640;53.116;6.878;2022-11-15T15:18:17;5.83;;;4.50;;
15082;SDS011;7640;53.116;6.878;2022-11-15T15:20:47;6.00;;;5.03;;
15082;SDS011;7640;53.116;6.878;2022-11-15T15:23:26;6.40;;;5.10;;
15082;SDS011;7640;53.116;6.878;2022-11-15T15:25:56;7.13;;;5.30;;
15082;SDS011;7640;53.116;6.878;2022-11-15T15:28:25;9.27;;;5.60;;
15082;SDS011;7640;53.116;6.878;2022-11-15T15:30:59;5.83;;;5.20;;
15082;SDS011;7640;53.116;6.878;2022-11-15T15:33:29;5.90;;;5.40;;
15082;SDS011;7640;53.116;6.878;2022-11-15T15:35:58;6.03;;;5.30;;
15082;SDS011;7640;53.116;6.878;2022-11-15T15:38:26;7.47;;;5.40;;
15082;SDS011;7640;53.116;6.878;2022-11-15T15:40:55;5.93;;;5.27;;
15082;SDS011;7640;53.116;6.878;2022-11-15T15:43:25;7.53;;;4.77;;
15082;SDS011;7640;53.116;6.878;2022-11-15T15:45:54;7.80;;;5.43;;